Terminal Aerodrome Forecast
Issued by NWS

Home | Current Version | Previous Version | Text Only | Print | Product List | Glossary On
Versions: 1 2 3 4 5 6 7 8 9 10 11 12 13 14 15 16 17 18 19 20 21 22 23 24 25 26 27 28 29 30 31 32 33 34 35
000
FTUS45 KGJT 292335
TAFMTJ
TAF
KMTJ 292335Z 3000/3024 12005KT P6SM VCTS FEW050 SCT100CB BKN150
      TEMPO 3000/3002 VRB15G25KT 5SM TSRA SCT030 BKN045CB
     FM300200 15008KT P6SM VCTS SCT030 BKN050CB
      TEMPO 3002/3005 VRB10G20KT -TSRA BKN045CB
     FM300500 13005KT P6SM VCSH SCT050 BKN100
     FM301200 VRB04KT P6SM FEW050 BKN140
     FM301900 34009KT P6SM VCTS SCT060CB BKN100=

USA.gov is the U.S. government's official web portal to all federal, state and local government web resources and services.